Terminal Aerodrome Forecast
Issued by NWS

Home | Current Version | Previous Version | Text Only | Print | Product List | Glossary On
Versions: 1 2 3 4 5 6 7 8 9 10 11 12 13 14 15
194
FTUS43 KLSX 240520
TAFSUS
TAF
KSUS 240520Z 2406/2506 VRB04KT P6SM SCT040 BKN100
     FM241300 31008KT P6SM BKN030
     FM241800 31009KT P6SM VCSH BKN035
     FM250100 30007KT P6SM BKN040=

USA.gov is the U.S. government's official web portal to all federal, state and local government web resources and services.